Time;durP1;ratioP1;P1;durP2;ratioP2;P2;SDS_P1;SDS_P2;PMS_P1;PMS_P2;Temp;Humidity;BMP_temperature;BMP_pressure;BME280_temperature;BME280_humidity;BME280_pressure;Samples;Min_cycle;Max_cycle;Signal;HPM_P1;HPM_P2
2021/06/16 00:00:22;;;;;;;;;;;;;;;19.32;74.53;96025.97;1052937;28;19987;-72
2021/06/16 00:00:52;;;;;;;;;;;;;;;19.32;74.42;96028.69;1052778;28;19916;-73
2021/06/16 00:01:22;;;;;;;;;;;;;;;19.28;75.02;96025.03;1052552;28;20538;-72
2021/06/16 00:01:52;;;;;;;;;;;;;;;19.29;74.57;96023.91;1053187;28;19912;-72
2021/06/16 00:02:23;;;;;;;;;;;;;;;19.25;74.88;96017.56;1053599;28;19912;-72
2021/06/16 00:02:54;;;;;;;;;;;;;;;19.23;75.35;96026.78;1053507;28;19920;-72
2021/06/16 00:03:24;;;;;;;;;;;;;;;19.26;75.01;96019.94;1053468;28;19912;-72
2021/06/16 00:03:54;;;;;;;;;;;;;;;19.25;74.94;96025.69;1053593;28;20001;-72
2021/06/16 00:04:24;;;;;;;;;;;;;;;19.21;74.64;96020.91;1053582;28;19923;-72
2021/06/16 00:04:55;;;;;;;;;;;;;;;19.25;74.27;96018.34;1054023;28;19912;-72
2021/06/16 00:05:26;;;;;;;;;;;;;;;19.27;74.45;96026.16;1053973;28;20371;-72
2021/06/16 00:05:57;;;;;;;;;;;;;;;19.20;74.44;96027.44;1053879;28;19912;-72
2021/06/16 00:06:27;;;;;;;;;;;;;;;19.20;74.30;96021.25;1053506;28;20381;-72
2021/06/16 00:06:57;;;;;;;;;;;;;;;19.17;74.47;96022.66;1049355;28;19923;-72
2021/06/16 00:07:28;;;;;;;;;;;;;;;19.18;74.87;96024.25;1049451;28;19924;-72
2021/06/16 00:07:58;;;;;;;;;;;;;;;19.17;74.41;96019.97;1049435;28;19912;-72
2021/06/16 00:08:28;;;;;;;;;;;;;;;19.19;74.81;96025.03;1049403;28;19916;-73
2021/06/16 00:08:59;;;;;;;;;;;;;;;19.17;74.12;96019.16;1053632;28;19958;-72
2021/06/16 00:09:29;;;;;;;;;;;;;;;19.14;74.08;96017.91;1049361;28;19959;-72
2021/06/16 00:09:59;;;;;;;;;;;;;;;19.13;73.86;96027.13;1049425;28;19912;-72
2021/06/16 00:10:30;;;;;;;;;;;;;;;19.14;74.52;96019.78;1053650;28;20396;-72
2021/06/16 00:11:00;;;;;;;;;;;;;;;19.15;73.87;96022.19;1053635;28;19919;-72
2021/06/16 00:11:31;;;;;;;;;;;;;;;19.12;74.34;96020.13;1053914;28;19951;-72
2021/06/16 00:12:02;;;;;;;;;;;;;;;19.11;74.70;96031.28;1053890;28;20003;-72
2021/06/16 00:12:32;;;;;;;;;;;;;;;19.09;74.91;96022.69;1053514;28;20284;-72
2021/06/16 00:13:02;;;;;;;;;;;;;;;19.08;74.29;96026.50;1053627;28;19912;-72
2021/06/16 00:13:33;;;;;;;;;;;;;;;19.09;74.44;96017.25;1053626;28;19912;-72
2021/06/16 00:14:03;;;;;;;;;;;;;;;19.08;74.16;96024.59;1053579;28;19947;-72
2021/06/16 00:14:33;;;;;;;;;;;;;;;19.08;74.29;96019.19;1053878;28;19924;-73
2021/06/16 00:15:11;;;;;;;;;;;;;;;19.06;74.56;96029.56;1053866;28;20234;-72
2021/06/16 00:15:42;;;;;;;;;;;;;;;19.05;74.77;96029.88;1053911;28;19920;-72
2021/06/16 00:16:12;;;;;;;;;;;;;;;19.01;74.72;96029.72;1053550;28;19920;-72
2021/06/16 00:16:42;;;;;;;;;;;;;;;19.02;75.00;96025.91;1053539;28;19919;-72
2021/06/16 00:17:13;;;;;;;;;;;;;;;19.04;74.53;96029.09;1053636;28;19916;-72
2021/06/16 00:17:43;;;;;;;;;;;;;;;19.05;74.46;96024.47;1053589;28;19908;-72
2021/06/16 00:18:13;;;;;;;;;;;;;;;19.06;74.54;96026.84;1053856;28;19916;-72
2021/06/16 00:18:44;;;;;;;;;;;;;;;19.05;74.46;96027.19;1053836;28;20341;-72
2021/06/16 00:19:14;;;;;;;;;;;;;;;19.06;74.96;96031.47;1053548;28;19916;-72
2021/06/16 00:19:44;;;;;;;;;;;;;;;19.05;75.04;96024.47;1053387;28;19912;-72
2021/06/16 00:20:14;;;;;;;;;;;;;;;19.03;74.94;96027.47;1049189;28;20447;-72
2021/06/16 00:20:45;;;;;;;;;;;;;;;19.01;74.88;96027.03;1049304;28;19959;-72
2021/06/16 00:21:15;;;;;;;;;;;;;;;19.02;75.27;96027.81;1053642;28;19909;-72
2021/06/16 00:21:46;;;;;;;;;;;;;;;19.03;74.60;96023.97;1053508;28;19998;-72
2021/06/16 00:22:16;;;;;;;;;;;;;;;19.04;75.12;96022.84;1053900;28;19930;-72
2021/06/16 00:22:46;;;;;;;;;;;;;;;19.03;74.93;96023.97;1053827;28;19970;-72
2021/06/16 00:23:16;;;;;;;;;;;;;;;19.01;75.26;96026.22;1053832;28;20273;-72
2021/06/16 00:23:47;;;;;;;;;;;;;;;19.00;75.05;96028.16;1053880;28;19912;-72
2021/06/16 00:24:20;;;;;;;;;;;;;;;18.95;75.76;96026.41;1053210;28;19912;-72
2021/06/16 00:24:51;;;;;;;;;;;;;;;18.94;75.61;96021.31;1053488;28;19908;-72
2021/06/16 00:25:21;;;;;;;;;;;;;;;18.91;76.02;96027.38;1053251;28;19967;-72
2021/06/16 00:25:51;;;;;;;;;;;;;;;18.89;76.24;96027.69;1053561;28;19935;-72
2021/06/16 00:26:21;;;;;;;;;;;;;;;18.88;76.29;96023.38;1053349;28;19934;-72
2021/06/16 00:26:52;;;;;;;;;;;;;;;18.85;77.12;96024.03;1053616;28;20441;-72
2021/06/16 00:27:22;;;;;;;;;;;;;;;18.83;77.30;96030.88;1053670;28;19912;-72
2021/06/16 00:27:52;;;;;;;;;;;;;;;18.81;77.23;96022.28;1053828;28;19912;-72
2021/06/16 00:28:23;;;;;;;;;;;;;;;18.80;77.26;96021.50;1053627;28;19916;-72
2021/06/16 00:28:53;;;;;;;;;;;;;;;18.78;77.15;96020.22;1053741;28;20024;-72
2021/06/16 00:29:23;;;;;;;;;;;;;;;18.79;77.64;96024.53;1053614;28;20284;-72
2021/06/16 00:29:54;;;;;;;;;;;;;;;18.80;76.97;96020.69;1053868;28;19918;-72
2021/06/16 00:30:24;;;;;;;;;;;;;;;18.81;76.81;96022.28;1053791;28;20383;-72
2021/06/16 00:30:54;;;;;;;;;;;;;;;18.82;77.22;96023.88;1053794;28;19954;-72
2021/06/16 00:31:24;;;;;;;;;;;;;;;18.83;77.21;96028.16;1053830;28;20304;-72
2021/06/16 00:31:55;;;;;;;;;;;;;;;18.84;76.68;96025.16;1053575;28;19912;-72
2021/06/16 00:32:25;;;;;;;;;;;;;;;18.85;77.04;96025.94;1053575;28;19911;-72
2021/06/16 00:32:55;;;;;;;;;;;;;;;18.86;77.04;96027.53;1053319;28;19912;-72
2021/06/16 00:33:26;;;;;;;;;;;;;;;18.85;77.15;96023.25;1053509;28;20419;-72
2021/06/16 00:33:56;;;;;;;;;;;;;;;18.83;76.45;96026.25;1053490;28;19970;-73
2021/06/16 00:34:26;;;;;;;;;;;;;;;18.84;76.99;96030.56;1053556;28;19935;-72
2021/06/16 00:34:57;;;;;;;;;;;;;;;18.83;76.65;96023.53;1049198;28;19927;-72
2021/06/16 00:35:27;;;;;;;;;;;;;;;18.85;76.62;96023.25;1049389;28;19965;-72
2021/06/16 00:35:57;;;;;;;;;;;;;;;18.85;77.00;96025.94;1053531;28;20357;-72
2021/06/16 00:36:28;;;;;;;;;;;;;;;18.83;76.80;96025.47;1053534;28;19912;-72
2021/06/16 00:36:59;;;;;;;;;;;;;;;18.84;76.79;96029.78;1053502;28;19923;-73
2021/06/16 00:37:29;;;;;;;;;;;;;;;18.86;76.91;96022.91;1053474;28;19916;-72
2021/06/16 00:37:59;;;;;;;;;;;;;;;18.87;76.28;96024.50;1053519;28;19919;-72
2021/06/16 00:38:30;;;;;;;;;;;;;;;18.85;76.80;96024.03;1053559;28;19948;-72
2021/06/16 00:39:00;;;;;;;;;;;;;;;18.86;76.22;96022.13;1053741;28;19961;-72
2021/06/16 00:39:30;;;;;;;;;;;;;;;18.86;76.79;96024.81;1053785;28;19916;-72
2021/06/16 00:40:03;;;;;;;;;;;;;;;18.85;77.01;96024.03;1053813;28;19912;-72
2021/06/16 00:40:34;;;;;;;;;;;;;;;18.85;76.24;96029.44;1053681;28;19916;-73
2021/06/16 00:41:04;;;;;;;;;;;;;;;18.84;77.13;96018.94;1053822;28;19908;-72
2021/06/16 00:41:34;;;;;;;;;;;;;;;18.82;76.93;96021.16;1053399;28;19909;-72
2021/06/16 00:42:04;;;;;;;;;;;;;;;18.80;77.17;96020.69;1053541;28;19991;-72
2021/06/16 00:42:35;;;;;;;;;;;;;;;18.81;76.56;96020.38;1049233;28;19905;-72
2021/06/16 00:43:05;;;;;;;;;;;;;;;18.78;77.15;96021.00;1045067;28;19959;-72
2021/06/16 00:43:35;;;;;;;;;;;;;;;18.80;77.17;96023.41;1049357;28;19916;-72
2021/06/16 00:44:06;;;;;;;;;;;;;;;18.80;76.86;96015.28;1044796;28;20350;-72
2021/06/16 00:44:36;;;;;;;;;;;;;;;18.79;77.08;96017.19;1049349;28;19909;-72
2021/06/16 00:45:07;;;;;;;;;;;;;;;18.78;76.67;96012.88;1053487;28;19992;-72
2021/06/16 00:45:37;;;;;;;;;;;;;;;18.80;77.00;96021.50;1053385;28;20011;-72
2021/06/16 00:46:07;;;;;;;;;;;;;;;18.80;76.88;96023.41;1053841;28;19900;-72
2021/06/16 00:46:38;;;;;;;;;;;;;;;18.76;77.43;96017.84;1053816;28;19904;-72
2021/06/16 00:47:08;;;;;;;;;;;;;;;18.80;77.36;96023.41;1053818;28;19921;-72
2021/06/16 00:47:39;;;;;;;;;;;;;;;18.78;77.18;96026.41;1053696;28;19908;-72
2021/06/16 00:48:09;;;;;;;;;;;;;;;18.81;76.89;96025.00;1053701;28;20398;-73
2021/06/16 00:48:39;;;;;;;;;;;;;;;18.82;76.69;96023.88;1053744;28;19919;-73
2021/06/16 00:49:09;;;;;;;;;;;;;;;18.81;76.66;96025.00;1053790;28;19900;-72
2021/06/16 00:49:40;;;;;;;;;;;;;;;18.79;77.51;96024.53;1053757;28;20368;-72
2021/06/16 00:50:10;;;;;;;;;;;;;;;18.75;77.01;96023.56;1053718;28;19911;-72
2021/06/16 00:50:40;;;;;;;;;;;;;;;18.76;77.28;96025.94;1053766;28;19911;-72
2021/06/16 00:51:11;;;;;;;;;;;;;;;18.78;77.30;96021.00;1053722;28;19916;-72
2021/06/16 00:51:41;;;;;;;;;;;;;;;18.80;76.99;96026.13;1053657;28;19908;-72
2021/06/16 00:52:11;;;;;;;;;;;;;;;18.79;77.43;96029.94;1053803;28;19907;-72
2021/06/16 00:52:42;;;;;;;;;;;;;;;18.80;77.28;96031.53;1053794;28;20634;-72
2021/06/16 00:53:12;;;;;;;;;;;;;;;18.75;77.51;96029.78;1053842;28;19904;-72
2021/06/16 00:53:42;;;;;;;;;;;;;;;18.74;77.80;96030.13;1053659;28;19989;-72
2021/06/16 00:54:12;;;;;;;;;;;;;;;18.74;77.76;96024.69;1053728;28;19904;-72
2021/06/16 00:54:43;;;;;;;;;;;;;;;18.71;78.09;96026.13;1053747;28;19957;-72
2021/06/16 00:55:13;;;;;;;;;;;;;;;18.72;77.87;96040.44;1053745;28;19943;-72
2021/06/16 00:55:43;;;;;;;;;;;;;;;18.70;77.63;96030.75;1053754;28;19908;-72
2021/06/16 00:56:14;;;;;;;;;;;;;;;18.69;77.82;96034.56;1053689;28;20335;-72
2021/06/16 00:56:44;;;;;;;;;;;;;;;18.66;77.78;96034.38;1053457;28;19908;-73
2021/06/16 00:57:14;;;;;;;;;;;;;;;18.66;77.77;96037.88;1053296;28;19900;-72
2021/06/16 00:57:44;;;;;;;;;;;;;;;18.66;78.17;96034.38;1053439;28;19908;-72
2021/06/16 00:58:15;;;;;;;;;;;;;;;18.63;78.29;96026.88;1053389;28;19991;-73
2021/06/16 00:58:45;;;;;;;;;;;;;;;18.64;78.11;96033.91;1053507;28;19908;-73
2021/06/16 00:59:15;;;;;;;;;;;;;;;18.62;78.42;96031.50;1053413;28;20328;-73
2021/06/16 00:59:51;;;;;;;;;;;;;;;18.63;78.90;96033.13;1053433;28;19948;-72
2021/06/16 01:00:23;;;;;;;;;;;;;;;18.59;78.85;96034.88;1053309;28;20564;-72
2021/06/16 01:01:00;;;;;;;;;;;;;;;18.61;78.74;96032.63;1053495;28;19912;-73
2021/06/16 01:01:30;;;;;;;;;;;;;;;18.56;78.57;96030.09;1053434;28;19916;-73
2021/06/16 01:02:00;;;;;;;;;;;;;;;18.54;78.97;96026.91;1053455;28;19908;-72
2021/06/16 01:02:32;;;;;;;;;;;;;;;18.54;79.12;96032.31;1053409;28;19912;-72
2021/06/16 01:03:07;;;;;;;;;;;;;;;18.52;79.09;96031.03;1053439;28;19908;-73
2021/06/16 01:03:42;;;;;;;;;;;;;;;18.51;79.33;96032.16;1053443;28;19962;-73
2021/06/16 01:04:16;;;;;;;;;;;;;;;18.50;79.31;96034.06;1053308;28;19913;-72
2021/06/16 01:04:47;;;;;;;;;;;;;;;18.51;78.77;96027.53;1053466;28;19904;-73
2021/06/16 01:05:17;;;;;;;;;;;;;;;18.51;79.17;96032.94;1054724;28;19934;-74
2021/06/16 01:05:52;;;;;;;;;;;;;;;18.50;79.38;96025.16;1057694;28;19908;-73
2021/06/16 01:06:23;;;;;;;;;;;;;;;18.49;78.87;96023.56;1053304;28;20044;-72
2021/06/16 01:06:58;;;;;;;;;;;;;;;18.51;78.87;96032.94;1049194;28;19912;-73
2021/06/16 01:07:29;;;;;;;;;;;;;;;18.53;79.66;96021.81;1049239;28;19908;-72
2021/06/16 01:08:01;;;;;;;;;;;;;;;18.49;79.20;96027.06;1050214;28;19966;-73
2021/06/16 01:08:39;;;;;;;;;;;;;;;18.45;79.36;96028.81;1054244;28;20025;-72
2021/06/16 01:09:12;;;;;;;;;;;;;;;18.45;79.18;96026.91;1053417;28;19975;-73
2021/06/16 01:09:59;;;;;;;;;;;;;;;18.45;79.39;96026.13;1049179;28;20313;-73
2021/06/16 01:10:33;;;;;;;;;;;;;;;18.41;79.47;96025.94;1044986;28;20056;-72
2021/06/16 01:11:05;;;;;;;;;;;;;;;18.44;79.33;96024.53;1048340;28;19909;-72
2021/06/16 01:11:38;;;;;;;;;;;;;;;18.41;79.28;96025.16;1056446;28;19961;-72
2021/06/16 01:12:10;;;;;;;;;;;;;;;18.42;79.16;96024.03;1054524;28;20296;-72
2021/06/16 01:12:43;;;;;;;;;;;;;;;18.46;79.14;96027.69;1057513;28;19919;-72
2021/06/16 01:13:14;;;;;;;;;;;;;;;18.49;79.15;96020.88;1056476;28;19921;-72
2021/06/16 01:13:45;;;;;;;;;;;;;;;18.44;79.75;96021.81;1053022;28;20064;-72
2021/06/16 01:14:16;;;;;;;;;;;;;;;18.46;79.21;96025.00;1053330;28;19908;-73
2021/06/16 01:14:50;;;;;;;;;;;;;;;18.47;78.96;96031.19;1053385;28;19922;-72
2021/06/16 01:15:21;;;;;;;;;;;;;;;18.43;79.77;96023.75;1053449;28;20371;-72
2021/06/16 01:15:56;;;;;;;;;;;;;;;18.40;79.46;96021.66;1053390;28;19915;-73
2021/06/16 01:16:40;;;;;;;;;;;;;;;18.41;79.14;96020.53;1053412;28;19922;-72
2021/06/16 01:17:10;;;;;;;;;;;;;;;18.40;79.37;96023.56;1053357;28;19957;-72
2021/06/16 01:17:45;;;;;;;;;;;;;;;18.41;79.17;96023.25;1053432;28;20396;-72
2021/06/16 01:18:17;;;;;;;;;;;;;;;18.38;79.55;96023.09;1053365;28;20358;-72
2021/06/16 01:18:54;;;;;;;;;;;;;;;18.37;79.73;96022.28;1053380;28;20420;-73
2021/06/16 01:19:45;;;;;;;;;;;;;;;18.34;79.91;96022.94;1053384;28;19949;-72
2021/06/16 01:20:27;;;;;;;;;;;;;;;18.29;80.03;96020.41;1053264;28;20019;-72
2021/06/16 01:20:57;;;;;;;;;;;;;;;18.32;80.50;96025.16;1053156;28;20045;-72
2021/06/16 01:21:28;;;;;;;;;;;;;;;18.32;80.11;96019.75;1053363;28;20474;-72
2021/06/16 01:22:00;;;;;;;;;;;;;;;18.30;80.42;96016.56;1053375;28;20308;-72
2021/06/16 01:22:53;;;;;;;;;;;;;;;18.29;80.20;96019.59;1053399;28;19935;-72
2021/06/16 01:23:43;;;;;;;;;;;;;;;18.30;80.39;96021.97;1044767;28;20393;-72
2021/06/16 01:24:16;;;;;;;;;;;;;;;18.33;79.73;96020.56;1042510;28;19987;-72
2021/06/16 01:24:47;;;;;;;;;;;;;;;18.28;80.01;96023.44;1053270;28;20404;-73
2021/06/16 01:25:21;;;;;;;;;;;;;;;18.26;80.14;96028.34;1053407;28;19954;-73
2021/06/16 01:25:53;;;;;;;;;;;;;;;18.29;80.44;96016.91;1053368;28;19931;-73
2021/06/16 01:26:24;;;;;;;;;;;;;;;18.30;79.93;96021.19;1053334;28;19965;-73
2021/06/16 01:26:54;;;;;;;;;;;;;;;18.29;80.00;96014.97;1053339;28;19950;-72
2021/06/16 01:27:25;;;;;;;;;;;;;;;18.25;80.35;96024.06;1049008;28;19970;-73
2021/06/16 01:27:56;;;;;;;;;;;;;;;18.25;80.68;96013.22;1049133;28;20466;-72
2021/06/16 01:28:27;;;;;;;;;;;;;;;18.23;80.51;96024.38;1045040;28;19913;-72
2021/06/16 01:28:59;;;;;;;;;;;;;;;18.25;80.78;96022.13;1045008;28;20380;-72
2021/06/16 01:29:31;;;;;;;;;;;;;;;18.26;80.38;96021.03;1049724;28;19924;-72
2021/06/16 01:30:01;;;;;;;;;;;;;;;18.25;80.56;96021.34;1053412;28;20364;-72
2021/06/16 01:30:31;;;;;;;;;;;;;;;18.25;80.27;96024.84;1053340;28;19948;-72
2021/06/16 01:31:02;;;;;;;;;;;;;;;18.26;80.43;96014.81;1053227;28;19919;-72
2021/06/16 01:31:32;;;;;;;;;;;;;;;18.25;80.06;96013.22;1053387;28;19912;-72
2021/06/16 01:32:02;;;;;;;;;;;;;;;18.26;80.58;96018.31;1053344;28;19998;-72
2021/06/16 01:32:33;;;;;;;;;;;;;;;18.25;80.41;96021.34;1049155;28;19913;-73
2021/06/16 01:33:06;;;;;;;;;;;;;;;18.28;79.96;96020.72;1044849;28;19913;-72
2021/06/16 01:33:36;;;;;;;;;;;;;;;18.24;80.26;96020.56;1044956;28;19920;-72
2021/06/16 01:34:07;;;;;;;;;;;;;;;18.22;80.72;96019.25;1045425;28;20336;-73
2021/06/16 01:34:37;;;;;;;;;;;;;;;18.23;81.01;96018.19;1049656;28;19912;-72
2021/06/16 01:35:08;;;;;;;;;;;;;;;18.23;80.32;96020.88;1053525;28;19912;-72
2021/06/16 01:35:39;;;;;;;;;;;;;;;18.23;80.66;96012.75;1053255;28;19912;-72
2021/06/16 01:36:09;;;;;;;;;;;;;;;18.23;80.92;96018.97;1053349;28;20396;-72
2021/06/16 01:36:41;;;;;;;;;;;;;;;18.22;80.29;96019.25;1053367;28;19912;-72
2021/06/16 01:37:11;;;;;;;;;;;;;;;18.15;80.70;96017.03;1053368;28;19920;-73
2021/06/16 01:37:42;;;;;;;;;;;;;;;18.15;81.13;96012.44;1053209;28;19939;-72
2021/06/16 01:38:12;;;;;;;;;;;;;;;18.17;81.30;96020.25;1053353;28;19912;-72
2021/06/16 01:38:42;;;;;;;;;;;;;;;18.21;81.01;96023.09;1049121;28;19999;-72
2021/06/16 01:39:14;;;;;;;;;;;;;;;18.17;81.13;96015.63;1049050;28;19930;-73
2021/06/16 01:39:44;;;;;;;;;;;;;;;18.19;80.87;96016.09;1049074;28;20011;-72
2021/06/16 01:40:15;;;;;;;;;;;;;;;18.16;80.95;96022.13;1049328;28;19908;-72
2021/06/16 01:40:45;;;;;;;;;;;;;;;18.18;80.94;96011.81;1049196;28;19956;-72
2021/06/16 01:41:15;;;;;;;;;;;;;;;18.17;81.26;96017.53;1049089;28;19932;-72
2021/06/16 01:41:46;;;;;;;;;;;;;;;18.18;81.08;96025.31;1048999;28;19918;-72
2021/06/16 01:42:17;;;;;;;;;;;;;;;18.18;80.60;96019.13;1053379;28;19916;-72
2021/06/16 01:42:47;;;;;;;;;;;;;;;18.16;80.67;96015.91;1057622;27;19912;-72
2021/06/16 01:43:18;;;;;;;;;;;;;;;18.15;80.63;96017.84;1061818;27;19946;-72
2021/06/16 01:43:49;;;;;;;;;;;;;;;18.19;80.64;96024.22;1057311;28;20364;-73
2021/06/16 01:44:20;;;;;;;;;;;;;;;18.16;81.15;96016.72;1053299;28;20304;-72
2021/06/16 01:44:50;;;;;;;;;;;;;;;18.14;81.38;96016.25;1053294;28;19912;-73
2021/06/16 01:45:21;;;;;;;;;;;;;;;18.13;81.43;96019.28;1053261;28;19939;-73
2021/06/16 01:45:51;;;;;;;;;;;;;;;18.13;80.80;96021.97;1049067;28;19913;-72
2021/06/16 01:46:22;;;;;;;;;;;;;;;18.09;81.28;96023.72;1049128;28;19913;-72
2021/06/16 01:46:52;;;;;;;;;;;;;;;18.09;81.50;96016.41;1049091;28;19920;-72
2021/06/16 01:47:22;;;;;;;;;;;;;;;18.09;80.83;96021.03;1053242;28;19922;-72
2021/06/16 01:47:53;;;;;;;;;;;;;;;18.12;81.56;96020.41;1053224;28;19923;-72
2021/06/16 01:48:23;;;;;;;;;;;;;;;18.13;81.03;96016.56;1053287;28;19908;-72
2021/06/16 01:48:53;;;;;;;;;;;;;;;18.13;80.85;96021.97;1053234;28;19922;-72
2021/06/16 01:49:24;;;;;;;;;;;;;;;18.15;81.35;96017.84;1049039;28;19917;-73
2021/06/16 01:49:56;;;;;;;;;;;;;;;18.10;81.60;96019.91;1053273;28;20388;-72
2021/06/16 01:50:26;;;;;;;;;;;;;;;18.11;81.32;96016.88;1049094;28;20278;-72
2021/06/16 01:50:56;;;;;;;;;;;;;;;18.12;80.87;96020.41;1049423;28;19965;-72
2021/06/16 01:51:27;;;;;;;;;;;;;;;18.12;81.34;96015.00;1053371;28;19939;-72
2021/06/16 01:51:57;;;;;;;;;;;;;;;18.12;81.10;96020.41;1044909;28;20413;-72
2021/06/16 01:52:27;;;;;;;;;;;;;;;18.15;81.25;96017.84;1049106;28;20376;-72
2021/06/16 01:52:58;;;;;;;;;;;;;;;18.15;80.38;96022.44;1053151;28;19912;-72
2021/06/16 01:53:28;;;;;;;;;;;;;;;18.12;80.50;96017.69;1052952;28;19934;-72
2021/06/16 01:53:58;;;;;;;;;;;;;;;18.11;80.83;96016.88;1053102;28;19952;-73
2021/06/16 01:54:29;;;;;;;;;;;;;;;18.07;80.80;96013.22;1049024;28;19925;-72
2021/06/16 01:54:59;;;;;;;;;;;;;;;18.06;81.19;96025.13;1053236;28;19912;-72
2021/06/16 01:55:29;;;;;;;;;;;;;;;18.06;81.03;96010.81;1049084;28;20353;-73
2021/06/16 01:56:00;;;;;;;;;;;;;;;18.06;80.93;96013.53;1048935;28;19912;-72
2021/06/16 01:56:30;;;;;;;;;;;;;;;18.00;81.78;96022.91;1049053;28;19917;-73
2021/06/16 01:57:00;;;;;;;;;;;;;;;18.01;81.65;96024.50;1048964;28;20360;-72
2021/06/16 01:57:31;;;;;;;;;;;;;;;18.02;81.67;96013.38;1049151;28;19927;-72
2021/06/16 01:58:01;;;;;;;;;;;;;;;17.99;82.04;96024.81;1049061;28;19912;-72
2021/06/16 01:58:31;;;;;;;;;;;;;;;17.99;83.07;96007.81;1053224;28;19920;-73
2021/06/16 01:59:01;;;;;;;;;;;;;;;17.99;83.02;96010.50;1053212;28;19957;-72
2021/06/16 01:59:32;;;;;;;;;;;;;;;17.93;82.84;96015.28;1053221;28;20364;-72
2021/06/16 02:00:03;;;;;;;;;;;;;;;17.87;83.48;96017.34;1053144;28;19939;-72
2021/06/16 02:00:33;;;;;;;;;;;;;;;17.88;83.05;96016.22;1049092;28;19939;-73
2021/06/16 02:01:04;;;;;;;;;;;;;;;17.90;83.40;96016.69;1049027;28;19913;-72
2021/06/16 02:01:34;;;;;;;;;;;;;;;17.89;82.69;96011.59;1049246;28;19961;-72
2021/06/16 02:02:04;;;;;;;;;;;;;;;17.90;83.53;96018.59;1053218;28;19978;-72
2021/06/16 02:02:35;;;;;;;;;;;;;;;17.89;82.92;96017.00;1053096;28;19916;-72
2021/06/16 02:03:05;;;;;;;;;;;;;;;17.83;83.77;96018.28;1053139;28;19916;-72
2021/06/16 02:03:35;;;;;;;;;;;;;;;17.81;83.32;96017.78;1053203;28;19909;-72
2021/06/16 02:04:05;;;;;;;;;;;;;;;17.80;83.90;96014.28;1053263;28;20412;-72
2021/06/16 02:04:36;;;;;;;;;;;;;;;17.80;83.95;96011.59;1053072;28;19905;-72
2021/06/16 02:05:06;;;;;;;;;;;;;;;17.80;83.80;96013.50;1053207;28;19961;-72
2021/06/16 02:05:37;;;;;;;;;;;;;;;17.80;82.90;96013.50;1048953;28;19909;-72
2021/06/16 02:06:07;;;;;;;;;;;;;;;17.79;83.56;96009.22;1049004;28;20419;-72
2021/06/16 02:06:40;;;;;;;;;;;;;;;17.81;83.49;96015.09;1044841;28;19909;-73
2021/06/16 02:07:14;;;;;;;;;;;;;;;17.80;83.64;96016.19;1045368;28;19920;-72
2021/06/16 02:07:46;;;;;;;;;;;;;;;17.78;83.73;96007.63;1045768;28;20405;-73
2021/06/16 02:08:18;;;;;;;;;;;;;;;17.76;83.14;96007.94;1050208;28;19915;-72
2021/06/16 02:08:49;;;;;;;;;;;;;;;17.76;83.27;96004.41;1048950;28;19995;-72
2021/06/16 02:09:19;;;;;;;;;;;;;;;17.76;83.77;96007.13;1048998;28;19905;-73
2021/06/16 02:09:50;;;;;;;;;;;;;;;17.76;83.65;96013.34;1048863;28;19904;-72
2021/06/16 02:10:21;;;;;;;;;;;;;;;17.77;83.19;96006.03;1044941;28;19991;-72
2021/06/16 02:10:51;;;;;;;;;;;;;;;17.79;82.73;96006.50;1049042;28;20439;-72
2021/06/16 02:11:22;;;;;;;;;;;;;;;17.79;83.61;96010.00;1053130;28;20349;-72
2021/06/16 02:11:52;;;;;;;;;;;;;;;17.79;83.17;96007.28;1049186;28;19908;-72
2021/06/16 02:12:23;;;;;;;;;;;;;;;17.83;82.61;96010.19;1053165;28;20342;-73
2021/06/16 02:12:53;;;;;;;;;;;;;;;17.81;82.90;96002.38;1053137;28;19912;-72
2021/06/16 02:13:35;;;;;;;;;;;;;;;17.83;82.85;96004.78;1053191;28;19908;-72
2021/06/16 02:14:05;;;;;;;;;;;;;;;17.80;83.70;96008.88;1053178;28;20010;-72
2021/06/16 02:14:36;;;;;;;;;;;;;;;17.78;83.68;96004.91;1048894;28;19908;-72
2021/06/16 02:15:09;;;;;;;;;;;;;;;17.73;83.48;96007.78;1050454;28;19999;-74
2021/06/16 02:15:52;;;;;;;;;;;;;;;17.72;83.94;96006.16;1053221;28;20407;-72
2021/06/16 02:16:29;;;;;;;;;;;;;;;17.70;83.60;96002.94;1053248;28;19916;-72
2021/06/16 02:17:04;;;;;;;;;;;;;;;17.66;83.72;96006.31;1053094;28;19908;-72
2021/06/16 02:17:34;;;;;;;;;;;;;;;17.63;84.61;96009.63;1053130;28;20590;-72
2021/06/16 02:18:05;;;;;;;;;;;;;;;17.59;84.37;96011.34;1053194;28;19909;-73
2021/06/16 02:18:45;;;;;;;;;;;;;;;17.59;84.37;96013.25;1053264;28;19909;-72
2021/06/16 02:19:16;;;;;;;;;;;;;;;17.62;83.96;96009.94;1053144;28;19920;-73
2021/06/16 02:19:47;;;;;;;;;;;;;;;17.61;83.83;96009.16;1053279;28;19962;-73
2021/06/16 02:20:18;;;;;;;;;;;;;;;17.63;84.00;96009.63;1053500;28;19927;-73
2021/06/16 02:20:48;;;;;;;;;;;;;;;17.64;83.72;96003.09;1053069;28;19913;-73
2021/06/16 02:21:19;;;;;;;;;;;;;;;17.66;83.43;96003.59;1049129;28;19951;-72
2021/06/16 02:21:51;;;;;;;;;;;;;;;17.66;83.36;96003.59;1049130;28;20341;-72
2021/06/16 02:22:25;;;;;;;;;;;;;;;17.63;83.25;96004.22;1049579;28;19916;-72
2021/06/16 02:22:55;;;;;;;;;;;;;;;17.65;83.29;96004.69;1053490;28;20000;-72
2021/06/16 02:23:25;;;;;;;;;;;;;;;17.65;83.67;96004.69;1053163;28;20307;-72
2021/06/16 02:23:56;;;;;;;;;;;;;;;17.64;83.49;96005.81;1053856;28;19920;-72
2021/06/16 02:24:27;;;;;;;;;;;;;;;17.67;83.07;96007.88;1054026;28;20391;-72
2021/06/16 02:24:57;;;;;;;;;;;;;;;17.68;83.68;96003.28;1053410;28;19923;-72
2021/06/16 02:25:27;;;;;;;;;;;;;;;17.71;83.52;96004.53;1053819;28;20374;-73
2021/06/16 02:25:58;;;;;;;;;;;;;;;17.68;83.29;96008.69;1054837;28;19912;-73
2021/06/16 02:26:28;;;;;;;;;;;;;;;17.71;83.34;96005.34;1055031;28;20000;-73
2021/06/16 02:26:58;;;;;;;;;;;;;;;17.67;84.48;96007.88;1054850;28;19933;-73
2021/06/16 02:27:28;;;;;;;;;;;;;;;17.65;84.19;96001.97;1054843;28;19938;-73
2021/06/16 02:27:59;;;;;;;;;;;;;;;17.67;84.25;96004.41;1054375;28;19950;-73
2021/06/16 02:28:29;;;;;;;;;;;;;;;17.63;83.99;96003.41;1055067;28;20353;-73
2021/06/16 02:28:59;;;;;;;;;;;;;;;17.60;85.11;96004.84;1054447;28;20003;-73
2021/06/16 02:29:30;;;;;;;;;;;;;;;17.59;84.32;96002.44;1055034;28;19908;-72
2021/06/16 02:30:00;;;;;;;;;;;;;;;17.53;84.81;96004.50;1055191;28;19971;-73
2021/06/16 02:30:30;;;;;;;;;;;;;;;17.52;84.81;96002.91;1055241;28;19912;-73
2021/06/16 02:31:01;;;;;;;;;;;;;;;17.50;84.68;96007.81;1055464;28;19977;-73
2021/06/16 02:31:31;;;;;;;;;;;;;;;17.51;84.80;96005.94;1054887;28;19918;-73
2021/06/16 02:32:01;;;;;;;;;;;;;;;17.49;84.85;96003.53;1051427;28;19951;-71
2021/06/16 02:32:31;;;;;;;;;;;;;;;17.48;85.67;96004.66;1054610;28;19908;-74
2021/06/16 02:33:02;;;;;;;;;;;;;;;17.47;85.46;96002.28;1054405;28;19912;-74
2021/06/16 02:33:32;;;;;;;;;;;;;;;17.45;85.68;96005.25;1054409;28;19969;-72
2021/06/16 02:34:02;;;;;;;;;;;;;;;17.47;85.62;96003.06;1053911;28;19912;-72
2021/06/16 02:34:33;;;;;;;;;;;;;;;17.46;85.28;95997.97;1050546;28;19920;-73
2021/06/16 02:35:04;;;;;;;;;;;;;;;17.44;85.04;95990.16;1055746;28;19912;-72
2021/06/16 02:35:34;;;;;;;;;;;;;;;17.49;85.29;96006.22;1057405;28;19920;-71
2021/06/16 02:36:05;;;;;;;;;;;;;;;17.46;85.35;96004.19;1055172;28;19919;-72
2021/06/16 02:36:37;;;;;;;;;;;;;;;17.46;84.69;95998.78;1055004;28;20333;-72
2021/06/16 02:37:09;;;;;;;;;;;;;;;17.46;85.41;95998.78;1054647;28;20376;-73
2021/06/16 02:37:46;;;;;;;;;;;;;;;17.48;84.89;96001.16;1055121;28;19916;-74
2021/06/16 02:38:17;;;;;;;;;;;;;;;17.48;84.37;95998.44;1055118;28;19987;-73
2021/06/16 02:38:47;;;;;;;;;;;;;;;17.41;84.24;96002.41;1054646;28;20270;-72
2021/06/16 02:39:19;;;;;;;;;;;;;;;17.48;84.86;96006.56;1053875;28;19912;-72
2021/06/16 02:39:52;;;;;;;;;;;;;;;17.49;84.59;96000.03;1050920;28;19917;-73
2021/06/16 02:40:23;;;;;;;;;;;;;;;17.53;84.53;95999.09;1054660;28;19916;-72
2021/06/16 02:40:53;;;;;;;;;;;;;;;17.54;84.44;95999.91;1054661;28;20380;-72
2021/06/16 02:41:23;;;;;;;;;;;;;;;17.55;84.38;95991.47;1051063;28;19916;-72
2021/06/16 02:41:53;;;;;;;;;;;;;;;17.57;84.13;95996.56;1054742;28;19922;-73
2021/06/16 02:42:24;;;;;;;;;;;;;;;17.56;83.91;96001.19;1055021;28;19920;-74
2021/06/16 02:42:54;;;;;;;;;;;;;;;17.55;83.89;95999.56;1050053;28;19912;-72
2021/06/16 02:43:24;;;;;;;;;;;;;;;17.55;83.70;95994.16;1046800;28;19959;-73